Time;durP1;ratioP1;P1;durP2;ratioP2;P2;SDS_P1;SDS_P2;PMS_P1;PMS_P2;Temp;Humidity;BMP_temperature;BMP_pressure;BME280_temperature;BME280_humidity;BME280_pressure;Samples;Min_cycle;Max_cycle;Signal;HPM_P1;HPM_P2
2021/06/01 00:00:10;;;;;;;4.43;2.05;;;21.30;36.70;;;;;;1482287;40;20017;-60
2021/06/01 00:01:33;;;;;;;2.15;1.80;;;21.30;36.70;;;;;;1480412;40;20270;-60
2021/06/01 00:02:54;;;;;;;3.13;2.17;;;21.20;36.90;;;;;;1480383;40;20130;-60
2021/06/01 00:04:16;;;;;;;4.18;2.10;;;21.20;37.00;;;;;;1479505;40;20044;-61
2021/06/01 00:05:37;;;;;;;3.53;1.90;;;21.20;37.00;;;;;;1481905;40;20500;-60
2021/06/01 00:06:58;;;;;;;2.42;2.22;;;21.20;37.00;;;;;;1479968;40;20049;-60
2021/06/01 00:08:18;;;;;;;2.10;1.90;;;21.20;37.60;;;;;;1478991;40;20330;-60
2021/06/01 00:09:39;;;;;;;2.28;1.92;;;21.20;37.30;;;;;;1478326;40;20047;-60
2021/06/01 00:11:01;;;;;;;2.75;2.20;;;21.20;37.40;;;;;;1481472;40;20043;-60
2021/06/01 00:12:23;;;;;;;1.77;1.67;;;21.10;37.40;;;;;;1479551;40;20036;-60
2021/06/01 00:13:44;;;;;;;2.28;1.90;;;21.10;37.60;;;;;;1480765;40;20459;-60
2021/06/01 00:15:06;;;;;;;2.33;2.10;;;21.10;37.60;;;;;;1482080;40;20055;-60
2021/06/01 00:16:27;;;;;;;3.33;2.03;;;21.10;37.70;;;;;;1480187;40;20029;-60
2021/06/01 00:17:48;;;;;;;2.25;1.77;;;21.10;37.70;;;;;;1480472;40;20045;-60
2021/06/01 00:19:10;;;;;;;2.75;2.20;;;21.10;38.00;;;;;;1479552;40;20119;-60
2021/06/01 00:20:31;;;;;;;2.10;1.80;;;21.00;38.00;;;;;;1479521;40;20126;-60
2021/06/01 00:21:52;;;;;;;2.53;2.20;;;21.10;38.20;;;;;;1481229;40;20037;-60
2021/06/01 00:23:13;;;;;;;2.88;2.15;;;21.00;38.20;;;;;;1481533;40;20021;-60
2021/06/01 00:24:34;;;;;;;2.30;2.10;;;21.00;38.20;;;;;;1478259;40;20025;-61
2021/06/01 00:25:55;;;;;;;2.83;1.90;;;20.90;38.40;;;;;;1480017;40;20282;-60
2021/06/01 00:27:16;;;;;;;2.30;1.90;;;20.90;38.70;;;;;;1475405;40;20037;-60
2021/06/01 00:28:39;;;;;;;2.85;1.90;;;20.90;38.60;;;;;;1478630;40;20029;-60
2021/06/01 00:30:00;;;;;;;1.80;1.70;;;20.90;38.70;;;;;;1480887;40;20033;-60
2021/06/01 00:31:21;;;;;;;2.20;2.00;;;20.90;38.40;;;;;;1481124;40;20029;-61
2021/06/01 00:32:42;;;;;;;2.95;2.00;;;20.80;38.60;;;;;;1480785;40;20418;-60
2021/06/01 00:34:06;;;;;;;3.42;2.08;;;20.80;38.80;;;;;;1479446;40;20033;-60
2021/06/01 00:35:27;;;;;;;2.35;2.15;;;20.80;38.90;;;;;;1479370;40;20040;-60
2021/06/01 00:36:47;;;;;;;2.55;2.03;;;20.80;38.80;;;;;;1479135;40;20130;-60
2021/06/01 00:38:08;;;;;;;2.13;1.92;;;20.80;38.90;;;;;;1481471;40;20109;-60
2021/06/01 00:39:29;;;;;;;3.95;2.20;;;20.80;39.10;;;;;;1475798;40;20033;-60
2021/06/01 00:40:50;;;;;;;2.15;2.05;;;20.70;38.80;;;;;;1480889;40;20385;-60
2021/06/01 00:42:11;;;;;;;2.13;1.98;;;20.70;38.60;;;;;;1479945;40;20031;-61
2021/06/01 00:43:33;;;;;;;4.60;2.20;;;20.70;38.50;;;;;;1481764;40;20021;-60
2021/06/01 00:44:53;;;;;;;2.95;2.50;;;20.70;38.40;;;;;;1473248;40;20271;-60
2021/06/01 00:46:14;;;;;;;2.33;2.13;;;20.70;38.30;;;;;;1479355;40;20037;-60
2021/06/01 00:47:35;;;;;;;2.95;2.33;;;20.70;38.20;;;;;;1480627;40;20129;-60
2021/06/01 00:48:56;;;;;;;3.03;2.30;;;20.70;38.20;;;;;;1481066;40;20091;-60
2021/06/01 00:50:21;;;;;;;2.63;2.35;;;20.60;38.30;;;;;;1481629;40;20021;-60
2021/06/01 00:51:45;;;;;;;2.67;2.20;;;20.60;38.50;;;;;;1480924;40;20286;-60
2021/06/01 00:53:07;;;;;;;2.55;2.17;;;20.60;38.60;;;;;;1479919;40;20028;-60
2021/06/01 00:54:30;;;;;;;2.78;2.50;;;20.60;38.60;;;;;;1479531;40;20347;-60
2021/06/01 00:55:51;;;;;;;2.45;2.25;;;20.60;38.70;;;;;;1481994;40;20471;-60
2021/06/01 00:57:12;;;;;;;4.50;2.38;;;20.60;39.00;;;;;;1481457;40;20031;-60
2021/06/01 00:58:34;;;;;;;2.97;2.30;;;20.60;39.00;;;;;;1479841;40;20032;-60
2021/06/01 00:59:55;;;;;;;2.95;2.30;;;20.50;39.20;;;;;;1481058;40;20117;-60
2021/06/01 01:01:19;;;;;;;3.08;2.55;;;20.50;39.00;;;;;;1481124;40;20112;-60
2021/06/01 01:02:40;;;;;;;3.55;2.30;;;20.50;39.00;;;;;;1479833;40;20069;-60
2021/06/01 01:04:01;;;;;;;2.33;2.13;;;20.50;39.00;;;;;;1481621;40;20047;-60
2021/06/01 01:05:26;;;;;;;2.40;2.20;;;20.50;39.30;;;;;;1478357;40;20036;-60
2021/06/01 01:07:02;;;;;;;3.28;2.45;;;20.50;39.20;;;;;;1481323;40;20085;-60
2021/06/01 01:09:54;;;;;;;3.63;2.13;;;20.40;39.30;;;;;;1480524;40;20122;-60
2021/06/01 01:11:27;;;;;;;2.80;2.47;;;20.40;39.20;;;;;;1481508;40;20020;-60
2021/06/01 01:12:55;;;;;;;3.72;2.70;;;20.40;39.90;;;;;;1481375;40;20415;-60
2021/06/01 01:14:34;;;;;;;4.28;2.50;;;20.40;39.80;;;;;;1479125;40;20037;-60
2021/06/01 01:15:55;;;;;;;2.75;2.40;;;20.40;39.70;;;;;;1482866;40;20040;-60
2021/06/01 01:17:39;;;;;;;2.70;2.50;;;20.30;39.30;;;;;;1481238;40;20032;-60
2021/06/01 01:19:12;;;;;;;3.08;2.42;;;20.30;39.30;;;;;;1480540;40;20359;-60
2021/06/01 01:20:38;;;;;;;3.80;2.22;;;20.30;39.20;;;;;;1481245;40;20354;-60
2021/06/01 01:21:59;;;;;;;3.58;2.83;;;20.30;39.10;;;;;;1480073;40;20044;-60
2021/06/01 01:23:22;;;;;;;2.88;2.38;;;20.30;39.20;;;;;;1481823;40;20055;-60
2021/06/01 01:25:08;;;;;;;3.85;2.38;;;20.20;39.20;;;;;;1481260;40;20277;-60
2021/06/01 01:27:04;;;;;;;2.85;2.10;;;20.20;39.30;;;;;;1481047;40;20113;-60
2021/06/01 01:28:54;;;;;;;3.90;2.58;;;20.20;39.50;;;;;;1480606;40;20048;-60
2021/06/01 01:30:17;;;;;;;2.47;2.28;;;20.20;39.90;;;;;;1477129;40;20122;-60
2021/06/01 01:31:51;;;;;;;2.72;2.15;;;20.20;39.60;;;;;;1479291;40;20029;-60
2021/06/01 01:33:13;;;;;;;2.97;2.63;;;20.20;39.80;;;;;;1480594;40;20478;-60
2021/06/01 01:34:36;;;;;;;2.55;2.33;;;20.20;39.70;;;;;;1479628;40;20029;-60
2021/06/01 01:36:01;;;;;;;5.35;2.85;;;20.20;39.60;;;;;;1481501;40;20361;-60
2021/06/01 01:37:22;;;;;;;3.90;2.60;;;20.20;39.90;;;;;;1482418;39;20138;-60
2021/06/01 01:38:44;;;;;;;2.78;2.35;;;20.20;40.00;;;;;;1478413;40;20041;-60
2021/06/01 01:40:07;;;;;;;3.47;2.60;;;20.10;40.00;;;;;;1479041;40;20464;-60
2021/06/01 01:41:28;;;;;;;4.93;2.58;;;20.10;40.20;;;;;;1480866;40;20258;-60
2021/06/01 01:42:53;;;;;;;3.08;2.38;;;20.00;40.20;;;;;;1476847;40;20033;-60
2021/06/01 01:44:17;;;;;;;3.17;2.78;;;20.10;40.40;;;;;;1478911;40;20025;-60
2021/06/01 01:45:41;;;;;;;2.33;2.13;;;20.10;40.50;;;;;;1481573;40;20037;-60
2021/06/01 01:48:58;;;;;;;2.28;2.10;;;20.00;40.60;;;;;;1479154;40;20045;-60
2021/06/01 01:48:59;;;;;;;3.33;2.38;;;20.00;40.70;;;;;;1480350;40;20029;-60
2021/06/01 01:50:20;;;;;;;;;;;20.00;40.60;;;;;;1481604;40;20048;-60
2021/06/01 01:52:01;;;;;;;2.50;2.30;;;20.00;40.60;;;;;;1479661;40;20648;-60
2021/06/01 01:53:23;;;;;;;2.90;2.40;;;20.00;40.80;;;;;;1481673;40;20357;-60
2021/06/01 01:54:44;;;;;;;3.20;2.63;;;19.90;40.20;;;;;;1479725;40;20029;-60
2021/06/01 01:56:05;;;;;;;3.08;2.78;;;19.90;40.50;;;;;;1481063;40;20036;-60
2021/06/01 01:57:27;;;;;;;2.70;2.50;;;19.90;40.70;;;;;;1481514;40;20017;-60
2021/06/01 01:58:52;;;;;;;4.57;2.40;;;19.80;40.70;;;;;;1480208;40;20048;-60
2021/06/01 02:00:15;;;;;;;3.25;2.40;;;19.80;40.70;;;;;;1480113;40;20024;-60
2021/06/01 02:01:38;;;;;;;4.40;2.88;;;19.80;40.80;;;;;;1479910;40;20043;-60
2021/06/01 02:03:01;;;;;;;5.10;2.70;;;19.70;40.80;;;;;;1481572;40;20085;-59
2021/06/01 02:04:24;;;;;;;3.10;2.38;;;19.70;41.00;;;;;;1480478;40;20371;-60
2021/06/01 02:05:45;;;;;;;2.50;2.30;;;19.70;41.10;;;;;;1481094;40;20037;-60
2021/06/01 02:07:06;;;;;;;3.63;2.80;;;19.70;41.00;;;;;;1476852;40;20029;-60
2021/06/01 02:08:27;;;;;;;7.20;2.72;;;19.70;41.10;;;;;;1479032;40;20036;-60
2021/06/01 02:09:48;;;;;;;3.03;2.72;;;19.60;41.10;;;;;;1481182;40;20033;-62
2021/06/01 02:11:10;;;;;;;2.60;2.40;;;19.60;41.10;;;;;;1481257;40;20418;-61
2021/06/01 02:12:31;;;;;;;3.45;2.50;;;19.60;41.10;;;;;;1480701;40;20055;-61
2021/06/01 02:13:57;;;;;;;3.42;2.67;;;19.60;40.90;;;;;;1480985;40;20135;-59
2021/06/01 02:15:18;;;;;;;2.60;2.30;;;19.60;40.80;;;;;;1482490;40;20087;-61
2021/06/01 02:16:41;;;;;;;2.58;2.00;;;19.60;40.70;;;;;;1480246;40;20037;-62
2021/06/01 02:18:03;;;;;;;2.63;2.20;;;19.50;40.60;;;;;;1481943;40;20029;-61
2021/06/01 02:19:24;;;;;;;2.65;2.17;;;19.50;40.50;;;;;;1481034;40;20045;-62
2021/06/01 02:20:48;;;;;;;3.85;2.40;;;19.50;40.60;;;;;;1481665;40;20186;-64
2021/06/01 02:22:26;;;;;;;2.63;2.42;;;19.50;40.80;;;;;;1479747;40;20035;-61
2021/06/01 02:23:51;;;;;;;2.63;2.42;;;19.50;41.00;;;;;;1475837;40;20033;-61
2021/06/01 02:25:16;;;;;;;2.85;2.40;;;19.50;41.00;;;;;;1479541;40;20032;-61
2021/06/01 02:27:01;;;;;;;3.10;2.53;;;19.50;40.90;;;;;;1479366;40;20354;-61
2021/06/01 02:29:03;;;;;;;3.72;2.65;;;19.50;41.30;;;;;;1480219;40;20021;-61
2021/06/01 02:30:29;;;;;;;2.47;2.28;;;19.40;41.20;;;;;;1466100;40;20018;-61
2021/06/01 02:31:52;;;;;;;4.18;2.38;;;19.40;41.10;;;;;;1466322;40;20046;-59
2021/06/01 02:33:14;;;;;;;3.65;2.75;;;19.40;41.10;;;;;;1481674;40;20111;-61
2021/06/01 02:34:40;;;;;;;2.40;2.20;;;19.40;41.00;;;;;;1480906;40;20036;-61
2021/06/01 02:36:02;;;;;;;3.08;2.20;;;19.40;41.00;;;;;;1479408;40;20029;-61
2021/06/01 02:37:23;;;;;;;3.10;2.08;;;19.30;41.00;;;;;;1480488;40;20031;-61
2021/06/01 02:38:45;;;;;;;2.83;2.10;;;19.30;40.90;;;;;;1481830;40;20040;-61
2021/06/01 02:40:09;;;;;;;7.72;2.47;;;19.30;40.80;;;;;;1475301;40;20028;-61
2021/06/01 02:41:30;;;;;;;3.72;2.28;;;19.30;40.60;;;;;;1477759;40;20039;-61
2021/06/01 02:42:51;;;;;;;2.97;2.50;;;19.30;40.50;;;;;;1477854;40;20044;-61
2021/06/01 02:44:12;;;;;;;2.83;2.03;;;19.30;40.60;;;;;;1482064;40;20033;-61
2021/06/01 02:45:36;;;;;;;2.63;2.15;;;19.20;40.70;;;;;;1481621;40;20040;-61
2021/06/01 02:46:58;;;;;;;5.35;2.30;;;19.30;40.80;;;;;;1478320;40;20040;-61
2021/06/01 02:48:21;;;;;;;4.68;2.05;;;19.20;40.90;;;;;;1479810;40;20029;-61
2021/06/01 02:49:42;;;;;;;3.58;2.00;;;19.20;40.70;;;;;;1480522;40;20036;-61
2021/06/01 02:51:15;;;;;;;2.30;2.10;;;19.20;40.60;;;;;;1480599;40;20036;-61
2021/06/01 02:52:39;;;;;;;3.58;2.00;;;19.20;40.70;;;;;;1476625;40;20041;-61
2021/06/01 02:54:01;;;;;;;3.95;2.05;;;19.20;40.60;;;;;;1481224;40;20056;-61
2021/06/01 02:55:22;;;;;;;3.25;2.15;;;19.20;40.70;;;;;;1480772;40;20040;-61
2021/06/01 02:56:44;;;;;;;5.40;2.20;;;19.20;40.80;;;;;;1480111;40;20049;-61
2021/06/01 02:58:09;;;;;;;2.35;2.08;;;19.20;40.70;;;;;;1482507;40;20307;-60
2021/06/01 02:59:31;;;;;;;2.75;2.22;;;19.10;41.10;;;;;;1481588;40;20041;-61
2021/06/01 03:00:52;;;;;;;3.60;2.00;;;19.10;40.90;;;;;;1481836;40;20033;-61
2021/06/01 03:02:13;;;;;;;2.65;1.88;;;19.10;40.80;;;;;;1481717;40;20028;-61
2021/06/01 03:03:34;;;;;;;2.20;2.00;;;19.10;40.90;;;;;;1476780;40;20366;-60
2021/06/01 03:04:55;;;;;;;2.80;1.77;;;19.10;40.90;;;;;;1480055;40;20145;-61
2021/06/01 03:06:17;;;;;;;2.42;2.13;;;19.10;40.90;;;;;;1479769;40;20077;-61
2021/06/01 03:07:42;;;;;;;2.63;1.88;;;19.10;41.00;;;;;;1480124;40;20069;-61
2021/06/01 03:09:03;;;;;;;3.35;2.25;;;19.10;41.20;;;;;;1481878;40;20044;-61
2021/06/01 03:10:24;;;;;;;1.90;1.80;;;19.00;41.30;;;;;;1481341;40;20041;-61
2021/06/01 03:11:47;;;;;;;3.85;2.50;;;19.00;41.50;;;;;;1480754;40;20056;-61
2021/06/01 03:13:08;;;;;;;2.30;2.10;;;19.00;41.40;;;;;;1481990;40;20025;-61
2021/06/01 03:14:29;;;;;;;2.25;1.85;;;19.00;41.30;;;;;;1479747;40;20266;-61
2021/06/01 03:15:50;;;;;;;3.42;2.40;;;19.00;41.20;;;;;;1480826;40;20033;-61
2021/06/01 03:17:11;;;;;;;1.80;1.70;;;19.00;41.30;;;;;;1481299;40;20088;-61
2021/06/01 03:18:32;;;;;;;3.05;2.25;;;19.00;41.20;;;;;;1481086;40;20036;-61
2021/06/01 03:19:53;;;;;;;3.88;2.28;;;18.90;41.40;;;;;;1483267;40;20122;-61
2021/06/01 03:21:15;;;;;;;4.18;2.30;;;18.90;41.50;;;;;;1479570;40;20017;-61
2021/06/01 03:22:36;;;;;;;2.55;2.35;;;18.90;41.60;;;;;;1480732;40;20045;-61
2021/06/01 03:23:57;;;;;;;2.60;2.28;;;18.90;41.70;;;;;;1482089;40;20361;-60
2021/06/01 03:25:18;;;;;;;3.13;2.28;;;18.90;41.80;;;;;;1479885;40;20408;-61
2021/06/01 03:26:39;;;;;;;1.95;1.80;;;18.90;41.80;;;;;;1480663;40;20045;-61
2021/06/01 03:28:00;;;;;;;2.42;1.88;;;18.90;41.90;;;;;;1480059;40;20033;-61
2021/06/01 03:29:20;;;;;;;2.47;2.28;;;18.90;42.00;;;;;;1480768;40;20036;-61
2021/06/01 03:30:42;;;;;;;2.15;2.05;;;18.90;42.00;;;;;;1482238;40;20135;-61
2021/06/01 03:32:03;;;;;;;2.83;2.10;;;18.90;42.00;;;;;;1479106;40;20041;-61
2021/06/01 03:33:24;;;;;;;3.22;2.53;;;18.80;42.00;;;;;;1474522;40;20030;-61
2021/06/01 03:34:45;;;;;;;3.60;2.28;;;18.80;42.20;;;;;;1478372;40;20025;-60
2021/06/01 03:36:07;;;;;;;2.78;2.15;;;18.80;42.20;;;;;;1479749;40;20065;-61
2021/06/01 03:37:28;;;;;;;2.30;2.05;;;18.80;42.40;;;;;;1481400;40;20376;-61
2021/06/01 03:38:50;;;;;;;5.03;2.45;;;18.80;42.30;;;;;;1481083;40;20037;-61
2021/06/01 03:40:12;;;;;;;2.75;2.25;;;18.80;42.70;;;;;;1478961;40;20065;-61
2021/06/01 03:41:33;;;;;;;3.97;2.15;;;18.70;42.70;;;;;;1480364;40;20029;-61
2021/06/01 03:42:54;;;;;;;3.58;2.08;;;18.70;42.50;;;;;;1481032;40;20073;-61
2021/06/01 03:44:15;;;;;;;2.05;1.85;;;18.70;42.50;;;;;;1481973;40;20027;-61
2021/06/01 03:45:36;;;;;;;2.80;2.20;;;18.70;42.80;;;;;;1481003;40;20090;-61
2021/06/01 03:46:57;;;;;;;2.15;1.95;;;18.70;42.80;;;;;;1477021;40;20038;-61
2021/06/01 03:48:18;;;;;;;2.20;2.00;;;18.70;42.80;;;;;;1480492;40;20029;-61
2021/06/01 03:49:39;;;;;;;2.85;2.33;;;18.70;42.60;;;;;;1479878;40;20025;-61
2021/06/01 03:51:00;;;;;;;2.47;2.28;;;18.70;42.80;;;;;;1479737;40;20032;-61
2021/06/01 03:52:21;;;;;;;2.78;2.20;;;18.70;42.70;;;;;;1480467;40;20037;-60
2021/06/01 03:53:42;;;;;;;2.40;2.20;;;18.70;42.80;;;;;;1482322;40;20048;-61
2021/06/01 03:55:04;;;;;;;3.83;2.30;;;18.60;42.90;;;;;;1481366;40;20025;-61
2021/06/01 03:56:25;;;;;;;2.53;2.30;;;18.60;43.20;;;;;;1480248;40;20342;-61
2021/06/01 03:57:47;;;;;;;2.33;2.13;;;18.60;43.40;;;;;;1481239;40;20048;-61
2021/06/01 03:59:08;;;;;;;2.28;2.08;;;18.60;43.40;;;;;;1481011;40;20020;-61
2021/06/01 04:00:30;;;;;;;3.40;2.30;;;18.60;43.20;;;;;;1478299;40;20040;-61
2021/06/01 04:01:51;;;;;;;3.13;2.40;;;18.60;42.80;;;;;;1480344;40;20062;-61
2021/06/01 04:03:12;;;;;;;2.60;2.40;;;18.60;42.80;;;;;;1479782;40;20060;-60
2021/06/01 04:04:33;;;;;;;2.80;2.50;;;18.50;42.90;;;;;;1483448;40;20519;-61
2021/06/01 04:05:54;;;;;;;3.75;2.47;;;18.50;43.10;;;;;;1481456;40;20030;-61
2021/06/01 04:07:16;;;;;;;3.40;2.53;;;18.50;43.00;;;;;;1479836;40;20443;-60
2021/06/01 04:08:38;;;;;;;3.20;2.30;;;18.50;43.20;;;;;;1481417;40;20039;-61
2021/06/01 04:09:59;;;;;;;2.22;2.13;;;18.50;43.10;;;;;;1479966;40;20021;-60
2021/06/01 04:11:20;;;;;;;2.53;2.33;;;18.50;43.20;;;;;;1480696;40;20081;-61
2021/06/01 04:12:41;;;;;;;3.08;2.30;;;18.50;43.30;;;;;;1482000;40;20032;-61
2021/06/01 04:14:02;;;;;;;3.00;2.30;;;18.50;43.40;;;;;;1475352;40;20029;-60
2021/06/01 04:15:23;;;;;;;2.35;2.10;;;18.50;43.50;;;;;;1479958;40;20095;-61
2021/06/01 04:16:44;;;;;;;3.25;2.70;;;18.50;43.50;;;;;;1479212;40;20025;-61
2021/06/01 04:18:05;;;;;;;2.38;2.15;;;18.50;43.80;;;;;;1482783;40;20025;-61
2021/06/01 04:19:26;;;;;;;2.47;2.28;;;18.50;43.80;;;;;;1478469;40;20025;-61
2021/06/01 04:20:47;;;;;;;2.25;2.10;;;18.50;43.80;;;;;;1481184;40;20049;-61
2021/06/01 04:22:08;;;;;;;3.35;2.30;;;18.50;43.90;;;;;;1481782;40;20029;-60
2021/06/01 04:23:29;;;;;;;4.57;2.30;;;18.40;43.60;;;;;;1480766;40;20033;-60
2021/06/01 04:24:50;;;;;;;2.05;1.85;;;18.50;43.70;;;;;;1479275;40;20053;-60
2021/06/01 04:26:11;;;;;;;2.85;2.30;;;18.50;43.80;;;;;;1479376;40;20037;-61
2021/06/01 04:27:33;;;;;;;3.05;2.42;;;18.50;44.00;;;;;;1480950;40;20382;-61
2021/06/01 04:28:54;;;;;;;3.55;2.40;;;18.50;44.10;;;;;;1478631;40;20040;-60
2021/06/01 04:30:15;;;;;;;2.20;1.98;;;18.40;44.50;;;;;;1480909;40;20279;-61
2021/06/01 04:31:38;;;;;;;2.83;2.50;;;18.40;43.80;;;;;;1481568;40;20051;-61
2021/06/01 04:32:59;;;;;;;2.40;2.20;;;18.40;43.60;;;;;;1481930;40;20040;-61
2021/06/01 04:34:20;;;;;;;3.40;2.10;;;18.40;43.60;;;;;;1479086;40;20381;-61
2021/06/01 04:35:41;;;;;;;3.00;2.20;;;18.40;43.80;;;;;;1480126;40;20040;-60
2021/06/01 04:37:03;;;;;;;4.63;2.70;;;18.40;43.80;;;;;;1482134;40;20044;-61
2021/06/01 04:38:24;;;;;;;3.35;2.63;;;18.40;44.10;;;;;;1481229;40;20025;-61
2021/06/01 04:39:45;;;;;;;4.03;2.70;;;18.40;44.00;;;;;;1479992;40;20117;-60
2021/06/01 04:41:06;;;;;;;2.50;2.30;;;18.40;44.40;;;;;;1480249;40;20072;-60
2021/06/01 04:42:27;;;;;;;2.97;2.20;;;18.40;43.90;;;;;;1480245;40;20447;-61
2021/06/01 04:43:48;;;;;;;2.83;2.38;;;18.40;43.80;;;;;;1482470;40;20044;-61
2021/06/01 04:45:10;;;;;;;3.75;2.33;;;18.40;43.90;;;;;;1481562;40;20016;-61
2021/06/01 04:46:31;;;;;;;3.55;2.33;;;18.40;44.20;;;;;;1478857;40;20025;-61
2021/06/01 04:47:52;;;;;;;2.20;2.00;;;18.40;44.10;;;;;;1481476;40;20037;-61
2021/06/01 04:49:13;;;;;;;4.25;2.63;;;18.40;44.00;;;;;;1475157;40;20359;-61
2021/06/01 04:50:34;;;;;;;2.40;2.20;;;18.40;43.80;;;;;;1477391;40;20048;-61
2021/06/01 04:51:55;;;;;;;2.55;2.10;;;18.40;43.90;;;;;;1481190;40;20342;-61
2021/06/01 04:53:16;;;;;;;2.22;2.03;;;18.40;43.90;;;;;;1481026;40;20348;-61
2021/06/01 04:54:37;;;;;;;3.05;2.15;;;18.40;43.60;;;;;;1480118;40;20037;-61
2021/06/01 04:55:57;;;;;;;1.80;1.70;;;18.50;43.50;;;;;;1479540;40;20037;-61
2021/06/01 04:57:18;;;;;;;2.10;1.90;;;18.40;43.50;;;;;;1477536;40;20033;-61
2021/06/01 04:58:39;;;;;;;2.38;2.20;;;18.40;43.60;;;;;;1476593;40;20026;-60
2021/06/01 05:00:00;;;;;;;2.00;1.90;;;18.50;43.90;;;;;;1479224;40;20040;-61
2021/06/01 05:01:25;;;;;;;1.90;1.80;;;18.40;43.70;;;;;;1478085;40;20103;-61
2021/06/01 05:02:46;;;;;;;3.63;2.10;;;18.50;43.80;;;;;;1480613;40;20040;-61
2021/06/01 05:04:07;;;;;;;2.17;1.95;;;18.50;43.90;;;;;;1479577;40;20025;-61
2021/06/01 05:05:28;;;;;;;2.67;2.40;;;18.50;43.90;;;;;;1481370;40;20033;-61
2021/06/01 05:06:48;;;;;;;3.92;2.42;;;18.50;43.80;;;;;;1480699;40;20033;-61
2021/06/01 05:08:09;;;;;;;2.75;2.10;;;18.50;43.60;;;;;;1479194;40;20033;-61
2021/06/01 05:09:30;;;;;;;4.15;1.83;;;18.50;43.60;;;;;;1477054;40;20033;-61
2021/06/01 05:10:52;;;;;;;2.42;1.80;;;18.50;43.70;;;;;;1478562;40;20071;-61
2021/06/01 05:12:13;;;;;;;4.65;2.20;;;18.50;43.60;;;;;;1479850;40;20436;-61
2021/06/01 05:13:34;;;;;;;2.35;2.15;;;18.60;43.50;;;;;;1480728;40;20280;-61
2021/06/01 05:14:55;;;;;;;2.40;2.20;;;18.50;43.50;;;;;;1479072;40;20032;-61
2021/06/01 05:16:16;;;;;;;3.03;2.00;;;18.60;43.50;;;;;;1477498;40;20134;-61
2021/06/01 05:17:37;;;;;;;2.20;2.00;;;18.60;43.40;;;;;;1476660;40;20796;-61
2021/06/01 05:18:58;;;;;;;4.28;2.35;;;18.60;43.30;;;;;;1475837;40;20044;-61
2021/06/01 05:20:19;;;;;;;2.22;2.03;;;18.60;43.30;;;;;;1477111;40;20048;-61
2021/06/01 05:21:40;;;;;;;3.40;2.28;;;18.60;43.30;;;;;;1479706;40;20263;-61
2021/06/01 05:23:00;;;;;;;2.38;2.17;;;18.60;43.30;;;;;;1480714;40;20035;-61
2021/06/01 05:24:21;;;;;;;3.45;2.13;;;18.60;43.20;;;;;;1479022;40;20125;-61
2021/06/01 05:25:44;;;;;;;2.33;1.90;;;18.70;43.40;;;;;;1480173;40;20104;-61
2021/06/01 05:27:06;;;;;;;1.92;1.80;;;18.70;43.40;;;;;;1480279;40;20032;-61
2021/06/01 05:28:27;;;;;;;2.58;2.38;;;18.70;43.50;;;;;;1479585;40;20037;-61
2021/06/01 05:29:53;;;;;;;1.98;1.88;;;18.70;43.50;;;;;;1479162;40;20087;-60
2021/06/01 05:31:24;;;;;;;2.83;1.80;;;18.80;43.40;;;;;;1480675;40;20024;-61
2021/06/01 05:34:20;;;;;;;3.53;1.92;;;18.80;43.20;;;;;;1479251;40;20017;-61
2021/06/01 05:36:01;;;;;;;2.38;1.70;;;18.80;43.20;;;;;;1480898;40;20081;-61
2021/06/01 05:37:26;;;;;;;2.15;2.05;;;18.80;43.30;;;;;;1478217;40;20099;-61
2021/06/01 05:38:47;;;;;;;3.22;2.03;;;18.80;43.50;;;;;;1479716;40;20041;-61
2021/06/01 05:40:09;;;;;;;2.83;1.85;;;18.90;43.40;;;;;;1479169;40;20033;-61
2021/06/01 05:41:30;;;;;;;6.85;2.17;;;18.90;43.30;;;;;;1479845;40;20060;-61
2021/06/01 05:42:51;;;;;;;2.20;2.00;;;18.90;43.20;;;;;;1476100;40;20041;-60
2021/06/01 05:44:12;;;;;;;2.58;2.00;;;18.90;43.20;;;;;;1476143;40;20060;-61
2021/06/01 05:45:33;;;;;;;3.58;2.17;;;18.90;43.30;;;;;;1476019;40;20036;-61
2021/06/01 05:46:53;;;;;;;4.22;1.90;;;19.00;43.40;;;;;;1476867;40;20039;-61
2021/06/01 05:48:15;;;;;;;3.35;2.08;;;19.00;43.40;;;;;;1477411;40;20484;-61
2021/06/01 05:49:36;;;;;;;2.55;2.22;;;19.00;43.50;;;;;;1477054;40;20114;-61
2021/06/01 05:50:57;;;;;;;2.40;2.20;;;19.00;43.50;;;;;;1472140;40;20049;-60
2021/06/01 05:52:21;;;;;;;2.63;2.15;;;19.00;43.50;;;;;;1475091;40;20130;-60
2021/06/01 05:53:44;;;;;;;2.15;2.03;;;19.00;43.60;;;;;;1477372;40;20481;-61
2021/06/01 05:55:06;;;;;;;2.65;2.42;;;19.10;43.70;;;;;;1472182;40;20369;-60
2021/06/01 05:56:27;;;;;;;3.28;2.03;;;19.10;43.60;;;;;;1475457;40;20037;-61
2021/06/01 05:57:48;;;;;;;2.13;1.95;;;19.10;43.50;;;;;;1478567;40;20041;-60
2021/06/01 05:59:09;;;;;;;2.03;1.92;;;19.10;43.50;;;;;;1476597;40;20068;-61
2021/06/01 06:00:30;;;;;;;1.92;1.80;;;19.20;43.80;;;;;;1477053;40;20041;-60
2021/06/01 06:01:51;;;;;;;2.17;1.70;;;19.20;43.80;;;;;;1477420;40;20047;-60
2021/06/01 06:03:14;;;;;;;3.85;2.20;;;19.20;43.90;;;;;;1477572;40;20061;-61
2021/06/01 06:04:35;;;;;;;2.53;2.30;;;19.20;43.90;;;;;;1475475;40;20103;-60
2021/06/01 06:05:56;;;;;;;2.00;1.90;;;19.20;43.80;;;;;;1472504;40;20078;-61
2021/06/01 06:07:17;;;;;;;2.10;1.90;;;19.20;43.70;;;;;;1475694;40;20049;-61
2021/06/01 06:08:38;;;;;;;3.15;2.30;;;19.20;43.70;;;;;;1475590;40;20033;-61
2021/06/01 06:09:59;;;;;;;2.25;2.05;;;19.30;43.70;;;;;;1473001;40;20044;-61
2021/06/01 06:11:20;;;;;;;2.20;1.98;;;19.30;43.60;;;;;;1475817;40;20686;-61
2021/06/01 06:12:41;;;;;;;3.08;2.25;;;19.30;43.60;;;;;;1474554;40;20089;-61
2021/06/01 06:14:02;;;;;;;1.90;1.75;;;19.40;43.50;;;;;;1476176;40;20037;-60
2021/06/01 06:15:23;;;;;;;2.47;2.00;;;19.40;43.50;;;;;;1476436;40;20032;-60
2021/06/01 06:16:51;;;;;;;2.08;1.88;;;19.40;43.50;;;;;;1476947;40;20061;-60
2021/06/01 06:18:30;;;;;;;4.20;2.33;;;19.40;43.70;;;;;;1474116;40;20057;-61
2021/06/01 06:19:51;;;;;;;2.75;1.80;;;19.40;43.80;;;;;;1477361;40;20055;-61
2021/06/01 06:21:13;;;;;;;2.42;2.20;;;19.50;43.70;;;;;;1472972;40;20042;-61
2021/06/01 06:22:36;;;;;;;1.48;1.38;;;19.50;43.60;;;;;;1477675;40;20491;-61
2021/06/01 06:23:57;;;;;;;2.88;1.98;;;19.50;43.50;;;;;;1477926;40;20041;-61
2021/06/01 06:25:18;;;;;;;1.95;1.73;;;19.50;43.40;;;;;;1477269;40;20043;-61
2021/06/01 06:26:39;;;;;;;1.77;1.67;;;19.60;43.40;;;;;;1476985;40;20057;-61
2021/06/01 06:27:59;;;;;;;2.10;1.90;;;19.60;43.50;;;;;;1478971;40;20126;-60
2021/06/01 06:29:20;;;;;;;2.13;1.80;;;19.60;43.40;;;;;;1476947;40;20041;-61
2021/06/01 06:30:41;;;;;;;1.92;1.70;;;19.70;43.40;;;;;;1477871;40;20147;-61
2021/06/01 06:32:02;;;;;;;2.67;1.70;;;19.70;43.40;;;;;;1476737;40;20155;-60
2021/06/01 06:33:23;;;;;;;2.03;1.83;;;19.70;43.50;;;;;;1477203;40;20041;-61
2021/06/01 06:34:45;;;;;;;1.77;1.67;;;19.70;43.40;;;;;;1477051;40;20045;-61
2021/06/01 06:36:06;;;;;;;2.45;1.90;;;19.80;43.30;;;;;;1480556;40;20040;-61
2021/06/01 06:37:27;;;;;;;2.22;2.00;;;19.80;43.80;;;;;;1480549;40;20033;-61
2021/06/01 06:38:48;;;;;;;2.35;1.90;;;19.80;43.40;;;;;;1481848;40;20674;-61
2021/06/01 06:40:10;;;;;;;2.92;2.17;;;19.90;43.50;;;;;;1477985;40;20036;-61
2021/06/01 06:41:30;;;;;;;1.88;1.70;;;19.90;43.50;;;;;;1480409;40;20029;-61
2021/06/01 06:42:51;;;;;;;2.25;2.05;;;19.90;43.40;;;;;;1480433;40;20033;-61
2021/06/01 06:44:13;;;;;;;3.15;2.00;;;20.00;43.30;;;;;;1478534;40;20069;-60
2021/06/01 06:45:36;;;;;;;3.97;2.05;;;20.00;43.40;;;;;;1481993;40;20155;-61
2021/06/01 06:48:41;;;;;;;3.15;2.13;;;20.00;43.40;;;;;;1464008;40;20015;-61
2021/06/01 06:50:02;;;;;;;2.63;2.20;;;20.10;43.30;;;;;;1479327;40;20107;-61
2021/06/01 06:51:26;;;;;;;2.25;2.00;;;20.10;43.30;;;;;;1481239;40;20024;-61
2021/06/01 06:52:47;;;;;;;3.95;2.00;;;20.20;43.40;;;;;;1479924;40;20130;-61
2021/06/01 06:54:07;;;;;;;2.80;2.00;;;20.20;43.30;;;;;;1480591;40;20044;-61
2021/06/01 06:55:29;;;;;;;3.67;2.33;;;20.20;43.50;;;;;;1479660;40;20365;-61
2021/06/01 06:56:50;;;;;;;3.47;2.10;;;20.20;43.50;;;;;;1480367;40;20063;-61
2021/06/01 06:58:11;;;;;;;3.35;2.50;;;20.30;43.60;;;;;;1480882;40;20047;-61
2021/06/01 06:59:32;;;;;;;2.53;2.28;;;20.30;43.50;;;;;;1480099;40;20037;-61
2021/06/01 07:00:53;;;;;;;3.95;2.17;;;20.40;43.40;;;;;;1479648;40;20084;-60
2021/06/01 07:02:15;;;;;;;2.85;2.50;;;20.40;43.30;;;;;;1481016;40;20013;-60
2021/06/01 07:03:35;;;;;;;2.88;2.60;;;20.40;43.40;;;;;;1481502;40;20037;-61
2021/06/01 07:04:57;;;;;;;3.67;2.47;;;20.50;43.40;;;;;;1479824;40;20044;-61
2021/06/01 07:06:18;;;;;;;4.07;2.22;;;20.50;43.20;;;;;;1480491;40;20039;-60
2021/06/01 07:07:39;;;;;;;2.60;2.40;;;20.50;43.20;;;;;;1481354;40;20320;-61
2021/06/01 07:09:00;;;;;;;2.28;1.90;;;20.50;43.20;;;;;;1479774;40;20375;-60
2021/06/01 07:10:22;;;;;;;3.80;2.50;;;20.60;43.20;;;;;;1479488;40;20562;-61
2021/06/01 07:11:43;;;;;;;2.50;2.30;;;20.60;43.10;;;;;;1479072;40;20040;-61
2021/06/01 07:13:10;;;;;;;4.82;2.45;;;20.60;43.20;;;;;;1479148;40;20021;-60
2021/06/01 07:14:38;;;;;;;3.80;2.47;;;20.70;43.50;;;;;;1479113;40;20048;-61
2021/06/01 07:15:59;;;;;;;3.75;2.20;;;20.70;43.30;;;;;;1480731;40;20093;-60